createdAt,value
2023-04-04T00:00:05.835Z,0.40
2023-04-04T00:05:27.997Z,0.40
2023-04-04T00:10:49.838Z,0.47
2023-04-04T00:16:11.933Z,0.30
2023-04-04T00:21:33.816Z,0.30
2023-04-04T00:26:55.658Z,0.40
2023-04-04T00:32:17.570Z,0.40
2023-04-04T00:37:39.412Z,0.50
2023-04-04T00:43:01.754Z,0.43
2023-04-04T00:48:25.109Z,0.35
2023-04-04T00:53:48.308Z,0.40
2023-04-04T00:59:10.493Z,0.30
2023-04-04T01:04:33.150Z,0.38
2023-04-04T01:09:59.363Z,0.30
2023-04-04T01:15:21.212Z,0.43
2023-04-04T01:20:54.173Z,0.40
2023-04-04T01:26:16.030Z,0.30
2023-04-04T01:31:41.473Z,0.40
2023-04-04T01:37:31.036Z,0.52
2023-04-04T01:42:54.026Z,0.52
2023-04-04T01:48:17.016Z,0.30
2023-04-04T01:53:38.901Z,0.30
2023-04-04T01:59:02.123Z,0.40
2023-04-04T02:04:24.053Z,0.45
2023-04-04T02:09:46.004Z,0.45
2023-04-04T02:15:09.030Z,0.40
2023-04-04T02:20:30.973Z,0.55
2023-04-04T02:25:53.105Z,0.30
2023-04-04T02:31:15.005Z,0.40
2023-04-04T02:36:37.745Z,0.50
2023-04-04T02:41:59.609Z,0.38
2023-04-04T02:47:21.377Z,0.30
2023-04-04T02:52:43.346Z,0.55
2023-04-04T02:58:05.221Z,0.50
2023-04-04T03:03:27.603Z,0.40
2023-04-04T03:08:49.677Z,0.60
2023-04-04T03:14:12.090Z,0.40
2023-04-04T03:19:34.039Z,0.40
2023-04-04T03:24:56.041Z,0.43
2023-04-04T03:30:17.836Z,0.55
2023-04-04T03:35:40.898Z,0.35
2023-04-04T03:41:06.396Z,0.45
2023-04-04T03:46:28.258Z,0.40
2023-04-04T03:51:50.285Z,0.30
2023-04-04T03:57:12.210Z,0.50
2023-04-04T04:02:34.038Z,0.50
2023-04-04T04:07:56.448Z,0.50
2023-04-04T04:13:18.430Z,0.60
2023-04-04T04:18:40.490Z,0.57
2023-04-04T04:24:02.484Z,0.52
2023-04-04T04:29:24.405Z,0.40
2023-04-04T04:34:46.469Z,0.30
2023-04-04T04:40:09.095Z,0.30
2023-04-04T04:45:32.039Z,0.60
2023-04-04T04:50:53.901Z,0.35
2023-04-04T04:56:15.765Z,0.60
2023-04-04T05:01:37.625Z,0.35
2023-04-04T05:06:59.568Z,0.40
2023-04-04T05:12:21.420Z,0.50
2023-04-04T05:17:43.474Z,0.52
2023-04-04T05:23:06.403Z,1.00
2023-04-04T05:28:28.187Z,1.70
2023-04-04T05:33:49.925Z,1.00
2023-04-04T05:39:11.763Z,0.77
2023-04-04T05:44:33.580Z,1.20
2023-04-04T05:49:55.440Z,0.98
2023-04-04T05:55:17.588Z,1.00
2023-04-04T06:00:39.734Z,0.90
2023-04-04T06:06:04.835Z,0.93
2023-04-04T06:11:26.816Z,1.20
2023-04-04T06:16:48.844Z,0.60
2023-04-04T06:22:11.036Z,1.23
2023-04-04T06:27:32.807Z,1.00
2023-04-04T06:32:54.960Z,0.70
2023-04-04T06:38:16.639Z,0.90
2023-04-04T06:43:38.917Z,0.80
2023-04-04T06:49:00.725Z,0.80
2023-04-04T06:54:22.706Z,1.10
2023-04-04T06:59:45.296Z,1.02
2023-04-04T07:05:07.787Z,0.70
2023-04-04T07:10:29.589Z,0.80
2023-04-04T07:15:51.586Z,0.80
2023-04-04T07:21:14.072Z,0.70
2023-04-04T07:26:35.898Z,0.80
2023-04-04T07:31:57.706Z,0.93
2023-04-04T07:37:19.519Z,0.90
2023-04-04T07:42:45.822Z,1.00
2023-04-04T07:48:07.630Z,0.75
2023-04-04T07:53:29.415Z,1.05
2023-04-04T07:58:51.543Z,0.93
2023-04-04T08:04:13.424Z,0.80
2023-04-04T08:09:36.687Z,1.10
2023-04-04T08:14:58.575Z,0.93
2023-04-04T08:20:20.560Z,0.70
2023-04-04T08:25:44.309Z,0.75
2023-04-04T08:31:06.248Z,0.73
2023-04-04T08:36:29.006Z,0.73
2023-04-04T08:41:58.717Z,0.68
2023-04-04T08:47:21.787Z,0.80
2023-04-04T08:52:45.097Z,0.90
2023-04-04T08:58:07.025Z,1.10
2023-04-04T09:03:33.232Z,0.60
2023-04-04T09:08:57.794Z,0.80
2023-04-04T09:14:21.602Z,0.80
2023-04-04T09:19:43.423Z,0.63
2023-04-04T09:25:08.650Z,0.60
2023-04-04T09:30:30.662Z,0.73
2023-04-04T09:35:58.983Z,0.80
2023-04-04T09:41:21.732Z,0.60
2023-04-04T09:46:44.483Z,0.90
2023-04-04T09:52:19.031Z,0.63
2023-04-04T09:57:42.037Z,0.70
2023-04-04T10:03:05.546Z,0.60
2023-04-04T10:08:28.797Z,0.60
2023-04-04T10:13:53.684Z,1.05
2023-04-04T10:19:18.094Z,0.63
2023-04-04T10:24:40.673Z,1.20
2023-04-04T10:30:02.564Z,1.10
2023-04-04T10:35:25.020Z,1.15
2023-04-04T10:40:50.462Z,1.10
2023-04-04T10:46:16.130Z,1.00
2023-04-04T10:57:15.391Z,0.60
2023-04-04T11:02:57.078Z,0.90
2023-04-04T11:08:25.436Z,0.65
2023-04-04T11:14:00.243Z,1.17
2023-04-04T11:19:23.268Z,0.80
2023-04-04T11:24:46.299Z,1.10
2023-04-04T11:30:16.278Z,1.20
2023-04-04T11:35:40.228Z,0.98
2023-04-04T11:41:02.675Z,1.17
2023-04-04T11:46:29.482Z,0.98
2023-04-04T11:51:52.914Z,0.90
2023-04-04T11:57:19.759Z,5.65
2023-04-04T12:02:42.352Z,4.00
2023-04-04T12:08:05.396Z,3.63
2023-04-04T12:13:31.616Z,3.20
2023-04-04T12:18:53.804Z,3.67
2023-04-04T12:24:16.215Z,3.28
2023-04-04T12:29:38.498Z,3.15
2023-04-04T12:35:01.672Z,2.25
2023-04-04T12:40:23.776Z,1.95
2023-04-04T12:45:46.300Z,2.25
2023-04-04T12:51:09.166Z,2.20
2023-04-04T12:56:32.329Z,1.73
2023-04-04T13:01:54.287Z,1.60
2023-04-04T13:07:27.601Z,1.50
2023-04-04T13:13:07.506Z,1.40
2023-04-04T13:18:39.501Z,1.40
2023-04-04T13:24:04.218Z,1.88
2023-04-04T13:29:27.107Z,1.00
2023-04-04T13:34:49.429Z,1.15
2023-04-04T13:40:11.741Z,1.30
2023-04-04T13:45:34.250Z,0.93
2023-04-04T13:50:56.222Z,0.93
2023-04-04T13:56:19.064Z,1.10
2023-04-04T14:01:41.813Z,0.82
2023-04-04T14:07:03.704Z,0.85
2023-04-04T14:12:25.572Z,0.85
2023-04-04T14:17:47.380Z,0.70
2023-04-04T14:23:09.805Z,0.60
2023-04-04T14:28:31.631Z,1.00
2023-04-04T14:33:53.393Z,0.50
2023-04-04T14:39:15.284Z,0.57
2023-04-04T14:44:37.079Z,0.75
2023-04-04T14:49:59.315Z,0.77
2023-04-04T14:55:21.132Z,0.77
2023-04-04T15:00:42.885Z,0.50
2023-04-04T15:06:06.014Z,0.73
2023-04-04T15:11:28.430Z,0.50
2023-04-04T15:16:50.596Z,0.50
2023-04-04T15:22:12.549Z,0.80
2023-04-04T15:27:34.751Z,0.50
2023-04-04T15:32:57.317Z,0.73
2023-04-04T15:38:20.407Z,0.60
2023-04-04T15:43:43.359Z,0.80
2023-04-04T15:49:06.227Z,0.80
2023-04-04T15:54:29.217Z,0.80
2023-04-04T15:59:51.634Z,1.33
2023-04-04T16:05:13.401Z,1.00
2023-04-04T16:10:35.476Z,0.73
2023-04-04T16:15:57.430Z,1.02
2023-04-04T16:21:19.276Z,1.70
2023-04-04T16:26:47.396Z,1.20
2023-04-04T16:32:10.730Z,1.25
2023-04-04T16:37:32.541Z,1.20
2023-04-04T16:42:54.334Z,1.02
2023-04-04T16:48:16.347Z,1.20
2023-04-04T16:53:38.866Z,1.00
2023-04-04T16:59:01.657Z,1.05
2023-04-04T17:04:23.570Z,1.10
2023-04-04T17:09:47.087Z,1.50
2023-04-04T17:15:10.349Z,0.90
2023-04-04T17:20:34.407Z,0.80
2023-04-04T17:25:56.511Z,0.80
2023-04-04T17:31:18.688Z,1.40
2023-04-04T17:36:40.455Z,1.63
2023-04-04T17:42:02.941Z,1.63
2023-04-04T17:47:25.458Z,1.95
2023-04-04T17:52:47.247Z,2.00
2023-04-04T17:58:09.363Z,1.77
2023-04-04T18:03:31.927Z,1.30
2023-04-04T18:08:55.068Z,1.70
2023-04-04T18:14:17.217Z,1.70
2023-04-04T18:19:40.181Z,1.42
2023-04-04T18:25:02.401Z,1.38
2023-04-04T18:30:24.264Z,1.35
2023-04-04T18:35:46.639Z,1.25
2023-04-04T18:41:08.786Z,1.40
2023-04-04T18:46:30.608Z,1.52
2023-04-04T18:51:52.421Z,1.48
2023-04-04T18:57:14.984Z,1.00
2023-04-04T19:02:37.698Z,1.80
2023-04-04T19:08:01.638Z,2.47
2023-04-04T19:13:23.455Z,1.67
2023-04-04T19:18:45.206Z,1.38
2023-04-04T19:24:07.948Z,0.90
2023-04-04T19:29:32.314Z,2.10
2023-04-04T19:34:54.327Z,1.52
2023-04-04T19:40:16.778Z,0.90
2023-04-04T19:45:58.436Z,0.85
2023-04-04T19:51:23.040Z,1.52
2023-04-04T19:56:46.863Z,1.80
2023-04-04T20:02:38.567Z,1.70
2023-04-04T20:08:01.223Z,1.70
2023-04-04T20:13:23.258Z,1.55
2023-04-04T20:18:46.647Z,1.63
2023-04-04T20:24:08.851Z,2.13
2023-04-04T20:29:32.348Z,1.88
2023-04-04T20:34:54.257Z,1.92
2023-04-04T20:40:39.181Z,1.50
2023-04-04T20:46:01.444Z,1.70
2023-04-04T20:51:33.367Z,1.40
2023-04-04T20:56:57.360Z,1.35
2023-04-04T21:02:23.696Z,1.40
2023-04-04T21:07:45.515Z,1.50
2023-04-04T21:13:07.968Z,1.40
2023-04-04T21:18:33.041Z,1.80
2023-04-04T21:24:10.193Z,1.55
2023-04-04T21:29:32.025Z,1.25
2023-04-04T21:34:53.944Z,1.85
2023-04-04T21:40:16.760Z,1.63
2023-04-04T21:45:38.541Z,1.85
2023-04-04T21:51:00.327Z,1.55
2023-04-04T21:56:27.506Z,1.75
2023-04-04T22:01:50.618Z,1.60
2023-04-04T22:07:12.489Z,1.85
2023-04-04T22:12:39.493Z,1.80
2023-04-04T22:18:04.028Z,1.20
2023-04-04T22:23:25.870Z,1.75
2023-04-04T22:28:48.410Z,1.48
2023-04-04T22:34:11.916Z,1.55
2023-04-04T22:39:35.176Z,1.20
2023-04-04T22:44:56.946Z,1.20
2023-04-04T22:50:23.325Z,1.23
2023-04-04T22:55:45.138Z,1.27
2023-04-04T23:01:07.126Z,1.25
2023-04-04T23:06:30.051Z,1.20
2023-04-04T23:11:51.816Z,1.77
2023-04-04T23:17:13.579Z,1.77
2023-04-04T23:22:35.687Z,1.58
2023-04-04T23:27:57.450Z,1.33
2023-04-04T23:33:19.289Z,1.20
2023-04-04T23:38:41.030Z,1.38
2023-04-04T23:44:02.864Z,1.10
2023-04-04T23:49:24.750Z,1.63
2023-04-04T23:54:46.720Z,1.27
